sensor_id;sensor_type;location;lat;lon;timestamp;temperature;humidity
8945;DHT22;4507;40.232;29.132;2022-08-21T00:00:26;24.40;84.50
8945;DHT22;4507;40.232;29.132;2022-08-21T00:02:57;24.30;84.70
8945;DHT22;4507;40.232;29.132;2022-08-21T00:05:31;24.30;85.00
8945;DHT22;4507;40.232;29.132;2022-08-21T00:08:01;24.30;85.20
8945;DHT22;4507;40.232;29.132;2022-08-21T00:10:30;24.30;85.30
8945;DHT22;4507;40.232;29.132;2022-08-21T00:13:00;24.30;85.40
8945;DHT22;4507;40.232;29.132;2022-08-21T00:15:31;24.30;85.60
8945;DHT22;4507;40.232;29.132;2022-08-21T00:18:01;24.30;85.70
8945;DHT22;4507;40.232;29.132;2022-08-21T00:20:33;24.30;85.80
8945;DHT22;4507;40.232;29.132;2022-08-21T00:23:03;24.30;85.90
8945;DHT22;4507;40.232;29.132;2022-08-21T00:25:32;24.30;86.00
8945;DHT22;4507;40.232;29.132;2022-08-21T00:28:01;24.20;85.90
8945;DHT22;4507;40.232;29.132;2022-08-21T00:30:31;24.20;85.90
8945;DHT22;4507;40.232;29.132;2022-08-21T00:33:00;24.20;86.00
8945;DHT22;4507;40.232;29.132;2022-08-21T00:35:33;24.00;85.90
8945;DHT22;4507;40.232;29.132;2022-08-21T00:38:03;24.20;86.40
8945;DHT22;4507;40.232;29.132;2022-08-21T00:40:39;24.10;86.40
8945;DHT22;4507;40.232;29.132;2022-08-21T00:43:10;24.00;86.60
8945;DHT22;4507;40.232;29.132;2022-08-21T00:45:40;24.00;86.80
8945;DHT22;4507;40.232;29.132;2022-08-21T00:48:09;24.00;87.10
8945;DHT22;4507;40.232;29.132;2022-08-21T00:50:46;24.00;87.30
8945;DHT22;4507;40.232;29.132;2022-08-21T00:53:17;24.00;87.60
8945;DHT22;4507;40.232;29.132;2022-08-21T00:55:47;24.00;87.70
8945;DHT22;4507;40.232;29.132;2022-08-21T00:58:16;24.00;87.70
8945;DHT22;4507;40.232;29.132;2022-08-21T01:00:47;24.00;87.60
8945;DHT22;4507;40.232;29.132;2022-08-21T01:03:20;24.00;87.60
8945;DHT22;4507;40.232;29.132;2022-08-21T01:05:51;24.00;87.60
8945;DHT22;4507;40.232;29.132;2022-08-21T01:08:22;23.90;87.60
8945;DHT22;4507;40.232;29.132;2022-08-21T01:10:53;23.90;87.60
8945;DHT22;4507;40.232;29.132;2022-08-21T01:13:25;23.80;87.50
8945;DHT22;4507;40.232;29.132;2022-08-21T01:15:57;23.80;87.60
8945;DHT22;4507;40.232;29.132;2022-08-21T01:18:27;23.80;87.60
8945;DHT22;4507;40.232;29.132;2022-08-21T01:21:05;23.70;87.70
8945;DHT22;4507;40.232;29.132;2022-08-21T01:23:36;23.70;87.70
8945;DHT22;4507;40.232;29.132;2022-08-21T01:26:06;23.70;87.80
8945;DHT22;4507;40.232;29.132;2022-08-21T01:28:38;23.60;87.90
8945;DHT22;4507;40.232;29.132;2022-08-21T01:31:11;23.60;88.10
8945;DHT22;4507;40.232;29.132;2022-08-21T01:33:40;23.50;88.20
8945;DHT22;4507;40.232;29.132;2022-08-21T01:36:11;23.50;88.40
8945;DHT22;4507;40.232;29.132;2022-08-21T01:38:41;23.50;88.50
8945;DHT22;4507;40.232;29.132;2022-08-21T01:41:10;23.40;88.50
8945;DHT22;4507;40.232;29.132;2022-08-21T01:43:39;23.40;88.60
8945;DHT22;4507;40.232;29.132;2022-08-21T01:46:09;23.40;88.80
8945;DHT22;4507;40.232;29.132;2022-08-21T01:48:38;23.30;89.00
8945;DHT22;4507;40.232;29.132;2022-08-21T01:51:08;23.30;89.30
8945;DHT22;4507;40.232;29.132;2022-08-21T01:53:38;23.30;89.60
8945;DHT22;4507;40.232;29.132;2022-08-21T01:56:11;23.20;89.80
8945;DHT22;4507;40.232;29.132;2022-08-21T01:58:41;23.20;90.00
8945;DHT22;4507;40.232;29.132;2022-08-21T02:01:11;23.20;90.10
8945;DHT22;4507;40.232;29.132;2022-08-21T02:03:41;23.20;90.20
8945;DHT22;4507;40.232;29.132;2022-08-21T02:06:13;23.20;90.30
8945;DHT22;4507;40.232;29.132;2022-08-21T02:08:47;23.20;90.40
8945;DHT22;4507;40.232;29.132;2022-08-21T02:11:18;23.20;90.50
8945;DHT22;4507;40.232;29.132;2022-08-21T02:13:47;23.10;90.50
8945;DHT22;4507;40.232;29.132;2022-08-21T02:16:16;23.10;90.60
8945;DHT22;4507;40.232;29.132;2022-08-21T02:18:46;23.10;90.70
8945;DHT22;4507;40.232;29.132;2022-08-21T02:21:15;23.10;90.80
8945;DHT22;4507;40.232;29.132;2022-08-21T02:23:46;23.10;90.90
8945;DHT22;4507;40.232;29.132;2022-08-21T02:26:15;23.10;90.90
8945;DHT22;4507;40.232;29.132;2022-08-21T02:28:44;23.10;91.00
8945;DHT22;4507;40.232;29.132;2022-08-21T02:31:14;23.00;91.00
8945;DHT22;4507;40.232;29.132;2022-08-21T02:33:43;23.00;91.20
8945;DHT22;4507;40.232;29.132;2022-08-21T02:36:12;23.00;91.10
8945;DHT22;4507;40.232;29.132;2022-08-21T02:38:42;23.00;91.30
8945;DHT22;4507;40.232;29.132;2022-08-21T02:41:14;23.00;91.40
8945;DHT22;4507;40.232;29.132;2022-08-21T02:43:44;23.00;91.80
8945;DHT22;4507;40.232;29.132;2022-08-21T02:46:15;23.00;91.60
8945;DHT22;4507;40.232;29.132;2022-08-21T02:48:45;22.90;91.60
8945;DHT22;4507;40.232;29.132;2022-08-21T02:51:16;22.90;91.60
8945;DHT22;4507;40.232;29.132;2022-08-21T02:53:47;22.90;91.60
8945;DHT22;4507;40.232;29.132;2022-08-21T02:56:19;22.90;91.60
8945;DHT22;4507;40.232;29.132;2022-08-21T02:58:50;22.90;91.60
8945;DHT22;4507;40.232;29.132;2022-08-21T03:01:21;22.90;91.60
8945;DHT22;4507;40.232;29.132;2022-08-21T03:03:50;22.80;91.60
8945;DHT22;4507;40.232;29.132;2022-08-21T03:06:21;22.80;91.70
8945;DHT22;4507;40.232;29.132;2022-08-21T03:08:52;22.80;91.70
8945;DHT22;4507;40.232;29.132;2022-08-21T03:11:22;22.70;91.70
8945;DHT22;4507;40.232;29.132;2022-08-21T03:13:51;22.70;91.80
8945;DHT22;4507;40.232;29.132;2022-08-21T03:16:20;22.70;91.90
8945;DHT22;4507;40.232;29.132;2022-08-21T03:18:49;22.60;92.00
8945;DHT22;4507;40.232;29.132;2022-08-21T03:21:18;22.60;92.00
8945;DHT22;4507;40.232;29.132;2022-08-21T03:23:47;22.60;92.10
8945;DHT22;4507;40.232;29.132;2022-08-21T03:26:16;22.60;92.20
8945;DHT22;4507;40.232;29.132;2022-08-21T03:29:06;22.60;92.30
8945;DHT22;4507;40.232;29.132;2022-08-21T03:31:35;22.60;92.40
8945;DHT22;4507;40.232;29.132;2022-08-21T03:34:04;22.50;92.40
8945;DHT22;4507;40.232;29.132;2022-08-21T03:36:33;22.60;92.50
8945;DHT22;4507;40.232;29.132;2022-08-21T03:39:03;22.60;92.50
8945;DHT22;4507;40.232;29.132;2022-08-21T03:41:33;22.60;92.40
8945;DHT22;4507;40.232;29.132;2022-08-21T03:44:22;22.60;92.40
8945;DHT22;4507;40.232;29.132;2022-08-21T03:46:51;22.50;92.40
8945;DHT22;4507;40.232;29.132;2022-08-21T03:49:20;22.60;92.40
8945;DHT22;4507;40.232;29.132;2022-08-21T03:51:49;22.60;92.50
8945;DHT22;4507;40.232;29.132;2022-08-21T03:54:26;22.60;92.60
8945;DHT22;4507;40.232;29.132;2022-08-21T03:56:55;22.60;92.60
8945;DHT22;4507;40.232;29.132;2022-08-21T03:59:25;22.60;92.60
8945;DHT22;4507;40.232;29.132;2022-08-21T04:01:56;22.60;92.70
8945;DHT22;4507;40.232;29.132;2022-08-21T04:04:27;22.60;92.80
8945;DHT22;4507;40.232;29.132;2022-08-21T04:06:57;22.60;92.80
8945;DHT22;4507;40.232;29.132;2022-08-21T04:09:27;22.60;92.80
8945;DHT22;4507;40.232;29.132;2022-08-21T04:11:56;22.70;92.90
8945;DHT22;4507;40.232;29.132;2022-08-21T04:14:26;22.70;92.90
8945;DHT22;4507;40.232;29.132;2022-08-21T04:16:55;22.70;93.00
8945;DHT22;4507;40.232;29.132;2022-08-21T04:19:24;22.70;93.00
8945;DHT22;4507;40.232;29.132;2022-08-21T04:21:53;22.80;93.00
8945;DHT22;4507;40.232;29.132;2022-08-21T04:24:22;22.80;93.00
8945;DHT22;4507;40.232;29.132;2022-08-21T04:26:56;22.80;93.10
8945;DHT22;4507;40.232;29.132;2022-08-21T04:29:26;22.80;93.20
8945;DHT22;4507;40.232;29.132;2022-08-21T04:31:56;22.80;93.30
8945;DHT22;4507;40.232;29.132;2022-08-21T04:34:25;22.90;93.40
8945;DHT22;4507;40.232;29.132;2022-08-21T04:36:54;22.90;93.40
8945;DHT22;4507;40.232;29.132;2022-08-21T04:39:23;23.00;93.50
8945;DHT22;4507;40.232;29.132;2022-08-21T04:41:56;23.00;93.50
8945;DHT22;4507;40.232;29.132;2022-08-21T04:44:26;23.00;93.50
8945;DHT22;4507;40.232;29.132;2022-08-21T04:46:55;23.10;93.60
8945;DHT22;4507;40.232;29.132;2022-08-21T04:49:24;23.10;93.50
8945;DHT22;4507;40.232;29.132;2022-08-21T04:51:54;23.20;93.50
8945;DHT22;4507;40.232;29.132;2022-08-21T04:54:23;23.20;93.50
8945;DHT22;4507;40.232;29.132;2022-08-21T04:56:52;23.30;93.60
8945;DHT22;4507;40.232;29.132;2022-08-21T04:59:46;23.30;93.60
8945;DHT22;4507;40.232;29.132;2022-08-21T05:02:16;23.40;93.60
8945;DHT22;4507;40.232;29.132;2022-08-21T05:04:49;23.40;93.60
8945;DHT22;4507;40.232;29.132;2022-08-21T05:07:21;23.50;93.70
8945;DHT22;4507;40.232;29.132;2022-08-21T05:10:10;23.50;93.70
8945;DHT22;4507;40.232;29.132;2022-08-21T05:12:40;23.60;93.80
8945;DHT22;4507;40.232;29.132;2022-08-21T05:15:12;23.60;93.80
8945;DHT22;4507;40.232;29.132;2022-08-21T05:17:41;23.70;93.90
8945;DHT22;4507;40.232;29.132;2022-08-21T05:20:27;23.70;93.90
8945;DHT22;4507;40.232;29.132;2022-08-21T05:22:56;23.80;94.00
8945;DHT22;4507;40.232;29.132;2022-08-21T05:25:25;23.80;94.00
8945;DHT22;4507;40.232;29.132;2022-08-21T05:27:56;23.90;94.00
8945;DHT22;4507;40.232;29.132;2022-08-21T05:30:28;24.00;94.10
8945;DHT22;4507;40.232;29.132;2022-08-21T05:32:58;24.10;94.30
8945;DHT22;4507;40.232;29.132;2022-08-21T05:35:28;24.20;94.00
8945;DHT22;4507;40.232;29.132;2022-08-21T05:37:57;24.20;94.00
8945;DHT22;4507;40.232;29.132;2022-08-21T05:40:27;24.30;93.80
8945;DHT22;4507;40.232;29.132;2022-08-21T05:42:57;24.30;93.70
8945;DHT22;4507;40.232;29.132;2022-08-21T05:45:30;24.40;93.70
8945;DHT22;4507;40.232;29.132;2022-08-21T05:48:12;24.50;93.60
8945;DHT22;4507;40.232;29.132;2022-08-21T05:50:42;24.50;93.50
8945;DHT22;4507;40.232;29.132;2022-08-21T05:53:12;24.60;93.50
8945;DHT22;4507;40.232;29.132;2022-08-21T05:55:42;24.70;93.40
8945;DHT22;4507;40.232;29.132;2022-08-21T05:58:13;24.70;93.10
8945;DHT22;4507;40.232;29.132;2022-08-21T06:00:45;24.80;93.00
8945;DHT22;4507;40.232;29.132;2022-08-21T06:03:17;24.90;92.80
8945;DHT22;4507;40.232;29.132;2022-08-21T06:05:46;25.00;92.60
8945;DHT22;4507;40.232;29.132;2022-08-21T06:08:17;25.10;92.20
8945;DHT22;4507;40.232;29.132;2022-08-21T06:10:47;25.20;92.10
8945;DHT22;4507;40.232;29.132;2022-08-21T06:13:19;25.20;91.90
8945;DHT22;4507;40.232;29.132;2022-08-21T06:15:50;25.30;91.90
8945;DHT22;4507;40.232;29.132;2022-08-21T06:18:19;25.40;91.90
8945;DHT22;4507;40.232;29.132;2022-08-21T06:20:48;25.50;91.80
8945;DHT22;4507;40.232;29.132;2022-08-21T06:23:17;25.60;91.70
8945;DHT22;4507;40.232;29.132;2022-08-21T06:25:46;25.60;91.50
8945;DHT22;4507;40.232;29.132;2022-08-21T06:28:15;25.70;91.40
8945;DHT22;4507;40.232;29.132;2022-08-21T06:30:44;25.80;91.30
8945;DHT22;4507;40.232;29.132;2022-08-21T06:33:14;25.80;91.20
8945;DHT22;4507;40.232;29.132;2022-08-21T06:35:44;25.90;91.20
8945;DHT22;4507;40.232;29.132;2022-08-21T06:38:13;26.00;91.20
8945;DHT22;4507;40.232;29.132;2022-08-21T06:40:42;26.10;91.20
8945;DHT22;4507;40.232;29.132;2022-08-21T06:43:15;26.10;91.10
8945;DHT22;4507;40.232;29.132;2022-08-21T06:45:45;26.30;91.10
8945;DHT22;4507;40.232;29.132;2022-08-21T06:48:15;26.40;90.90
8945;DHT22;4507;40.232;29.132;2022-08-21T06:50:46;26.50;90.80
8945;DHT22;4507;40.232;29.132;2022-08-21T06:53:17;26.60;90.60
8945;DHT22;4507;40.232;29.132;2022-08-21T06:55:47;26.70;90.60
8945;DHT22;4507;40.232;29.132;2022-08-21T06:58:17;26.80;90.30
8945;DHT22;4507;40.232;29.132;2022-08-21T07:00:48;26.90;90.20
8945;DHT22;4507;40.232;29.132;2022-08-21T07:03:26;27.00;90.10
8945;DHT22;4507;40.232;29.132;2022-08-21T07:05:55;27.00;89.60
8945;DHT22;4507;40.232;29.132;2022-08-21T07:08:26;27.10;89.10
8945;DHT22;4507;40.232;29.132;2022-08-21T07:10:58;27.20;88.90
8945;DHT22;4507;40.232;29.132;2022-08-21T07:13:27;27.30;88.10
8945;DHT22;4507;40.232;29.132;2022-08-21T07:15:56;27.50;87.30
8945;DHT22;4507;40.232;29.132;2022-08-21T07:18:31;27.50;86.70
8945;DHT22;4507;40.232;29.132;2022-08-21T07:21:01;27.70;86.10
8945;DHT22;4507;40.232;29.132;2022-08-21T07:23:32;27.80;85.60
8945;DHT22;4507;40.232;29.132;2022-08-21T07:26:02;27.90;85.00
8945;DHT22;4507;40.232;29.132;2022-08-21T07:28:32;28.00;84.50
8945;DHT22;4507;40.232;29.132;2022-08-21T07:31:02;28.10;84.20
8945;DHT22;4507;40.232;29.132;2022-08-21T07:33:34;28.20;83.70
8945;DHT22;4507;40.232;29.132;2022-08-21T07:36:03;28.40;83.00
8945;DHT22;4507;40.232;29.132;2022-08-21T07:38:33;28.50;82.60
8945;DHT22;4507;40.232;29.132;2022-08-21T07:41:03;28.60;81.90
8945;DHT22;4507;40.232;29.132;2022-08-21T07:43:34;28.70;80.40
8945;DHT22;4507;40.232;29.132;2022-08-21T07:46:12;28.80;79.60
8945;DHT22;4507;40.232;29.132;2022-08-21T07:48:43;28.90;78.40
8945;DHT22;4507;40.232;29.132;2022-08-21T07:51:13;29.00;78.10
8945;DHT22;4507;40.232;29.132;2022-08-21T07:53:48;29.10;77.50
8945;DHT22;4507;40.232;29.132;2022-08-21T07:56:17;29.20;76.60
8945;DHT22;4507;40.232;29.132;2022-08-21T07:58:47;29.30;76.30
8945;DHT22;4507;40.232;29.132;2022-08-21T08:01:16;29.40;75.40
8945;DHT22;4507;40.232;29.132;2022-08-21T08:03:47;29.50;74.40
8945;DHT22;4507;40.232;29.132;2022-08-21T08:06:16;29.60;74.20
8945;DHT22;4507;40.232;29.132;2022-08-21T08:08:46;29.70;73.90
8945;DHT22;4507;40.232;29.132;2022-08-21T08:11:16;29.80;73.40
8945;DHT22;4507;40.232;29.132;2022-08-21T08:13:46;29.90;72.80
8945;DHT22;4507;40.232;29.132;2022-08-21T08:16:16;30.00;72.40
8945;DHT22;4507;40.232;29.132;2022-08-21T08:18:46;30.10;71.80
8945;DHT22;4507;40.232;29.132;2022-08-21T08:21:16;30.20;71.40
8945;DHT22;4507;40.232;29.132;2022-08-21T08:23:46;30.20;70.40
8945;DHT22;4507;40.232;29.132;2022-08-21T08:26:15;30.40;69.70
8945;DHT22;4507;40.232;29.132;2022-08-21T08:28:46;30.50;69.10
8945;DHT22;4507;40.232;29.132;2022-08-21T08:31:15;30.60;68.60
8945;DHT22;4507;40.232;29.132;2022-08-21T08:33:46;30.70;67.80
8945;DHT22;4507;40.232;29.132;2022-08-21T08:36:16;30.70;66.30
8945;DHT22;4507;40.232;29.132;2022-08-21T08:38:47;30.80;65.60
8945;DHT22;4507;40.232;29.132;2022-08-21T08:41:18;30.90;64.60
8945;DHT22;4507;40.232;29.132;2022-08-21T08:43:51;31.00;63.90
8945;DHT22;4507;40.232;29.132;2022-08-21T08:46:25;31.10;63.60
8945;DHT22;4507;40.232;29.132;2022-08-21T08:49:05;31.20;63.00
8945;DHT22;4507;40.232;29.132;2022-08-21T08:51:39;31.20;63.10
8945;DHT22;4507;40.232;29.132;2022-08-21T08:54:12;31.30;63.50
8945;DHT22;4507;40.232;29.132;2022-08-21T08:56:43;31.30;63.20
8945;DHT22;4507;40.232;29.132;2022-08-21T08:59:15;31.40;63.10
8945;DHT22;4507;40.232;29.132;2022-08-21T09:01:46;31.50;62.40
8945;DHT22;4507;40.232;29.132;2022-08-21T09:04:22;31.60;61.60
8945;DHT22;4507;40.232;29.132;2022-08-21T09:07:05;31.70;61.40
8945;DHT22;4507;40.232;29.132;2022-08-21T09:09:48;31.80;61.40
8945;DHT22;4507;40.232;29.132;2022-08-21T09:12:36;31.90;61.00
8945;DHT22;4507;40.232;29.132;2022-08-21T09:15:15;32.00;60.70
8945;DHT22;4507;40.232;29.132;2022-08-21T09:18:13;32.10;60.40
8945;DHT22;4507;40.232;29.132;2022-08-21T09:21:00;32.20;59.90
8945;DHT22;4507;40.232;29.132;2022-08-21T09:23:36;32.30;59.70
8945;DHT22;4507;40.232;29.132;2022-08-21T09:26:13;32.40;59.40
8945;DHT22;4507;40.232;29.132;2022-08-21T09:28:43;32.50;59.10
8945;DHT22;4507;40.232;29.132;2022-08-21T09:31:22;32.60;58.90
8945;DHT22;4507;40.232;29.132;2022-08-21T09:34:11;32.70;58.70
8945;DHT22;4507;40.232;29.132;2022-08-21T09:36:44;32.80;59.60
8945;DHT22;4507;40.232;29.132;2022-08-21T09:39:23;32.90;58.70
8945;DHT22;4507;40.232;29.132;2022-08-21T09:41:57;33.00;58.10
8945;DHT22;4507;40.232;29.132;2022-08-21T09:44:45;33.10;57.80
8945;DHT22;4507;40.232;29.132;2022-08-21T09:47:18;33.20;57.90
8945;DHT22;4507;40.232;29.132;2022-08-21T09:49:53;33.30;57.70
8945;DHT22;4507;40.232;29.132;2022-08-21T09:52:24;33.30;57.40
8945;DHT22;4507;40.232;29.132;2022-08-21T09:54:55;33.40;57.40
8945;DHT22;4507;40.232;29.132;2022-08-21T09:57:27;33.50;57.40
8945;DHT22;4507;40.232;29.132;2022-08-21T10:00:24;33.60;57.10
8945;DHT22;4507;40.232;29.132;2022-08-21T10:02:53;33.70;56.80
8945;DHT22;4507;40.232;29.132;2022-08-21T10:05:24;33.70;56.60
8945;DHT22;4507;40.232;29.132;2022-08-21T10:07:55;33.80;56.80
8945;DHT22;4507;40.232;29.132;2022-08-21T10:10:28;33.80;56.10
8945;DHT22;4507;40.232;29.132;2022-08-21T10:13:21;33.90;55.90
8945;DHT22;4507;40.232;29.132;2022-08-21T10:15:57;34.00;55.80
8945;DHT22;4507;40.232;29.132;2022-08-21T10:18:35;34.00;55.60
8945;DHT22;4507;40.232;29.132;2022-08-21T10:21:09;34.10;55.80
8945;DHT22;4507;40.232;29.132;2022-08-21T10:23:54;34.20;55.70
8945;DHT22;4507;40.232;29.132;2022-08-21T10:26:32;34.20;55.10
8945;DHT22;4507;40.232;29.132;2022-08-21T10:29:11;34.30;54.90
8945;DHT22;4507;40.232;29.132;2022-08-21T10:31:49;34.40;54.90
8945;DHT22;4507;40.232;29.132;2022-08-21T10:34:32;34.40;54.60
8945;DHT22;4507;40.232;29.132;2022-08-21T10:37:18;34.40;54.80
8945;DHT22;4507;40.232;29.132;2022-08-21T10:39:59;34.50;54.70
8945;DHT22;4507;40.232;29.132;2022-08-21T10:42:36;34.70;54.30
8945;DHT22;4507;40.232;29.132;2022-08-21T10:45:15;34.70;54.10
8945;DHT22;4507;40.232;29.132;2022-08-21T10:47:49;34.80;54.30
8945;DHT22;4507;40.232;29.132;2022-08-21T10:50:30;35.00;54.20
8945;DHT22;4507;40.232;29.132;2022-08-21T10:53:15;35.10;54.00
8945;DHT22;4507;40.232;29.132;2022-08-21T10:56:13;35.20;53.50
8945;DHT22;4507;40.232;29.132;2022-08-21T10:58:49;35.50;53.00
8945;DHT22;4507;40.232;29.132;2022-08-21T11:01:24;35.70;52.40
8945;DHT22;4507;40.232;29.132;2022-08-21T11:04:12;36.00;51.80
8945;DHT22;4507;40.232;29.132;2022-08-21T11:07:07;36.60;50.80
8945;DHT22;4507;40.232;29.132;2022-08-21T11:09:47;36.90;49.80
8945;DHT22;4507;40.232;29.132;2022-08-21T11:12:41;37.20;49.00
8945;DHT22;4507;40.232;29.132;2022-08-21T11:15:24;37.30;48.80
8945;DHT22;4507;40.232;29.132;2022-08-21T11:18:02;37.40;48.50
8945;DHT22;4507;40.232;29.132;2022-08-21T11:20:38;37.50;48.30
8945;DHT22;4507;40.232;29.132;2022-08-21T11:23:14;37.60;47.80
8945;DHT22;4507;40.232;29.132;2022-08-21T11:25:50;37.60;47.60
8945;DHT22;4507;40.232;29.132;2022-08-21T11:28:26;37.80;47.50
8945;DHT22;4507;40.232;29.132;2022-08-21T11:31:06;37.80;47.00
8945;DHT22;4507;40.232;29.132;2022-08-21T11:34:07;37.90;46.60
8945;DHT22;4507;40.232;29.132;2022-08-21T11:36:45;38.00;46.50
8945;DHT22;4507;40.232;29.132;2022-08-21T11:39:22;38.10;46.50
8945;DHT22;4507;40.232;29.132;2022-08-21T11:41:59;38.10;46.20
8945;DHT22;4507;40.232;29.132;2022-08-21T11:44:47;38.20;46.10
8945;DHT22;4507;40.232;29.132;2022-08-21T11:47:24;38.20;45.90
8945;DHT22;4507;40.232;29.132;2022-08-21T11:50:06;38.30;45.70
8945;DHT22;4507;40.232;29.132;2022-08-21T11:52:59;38.30;45.40
8945;DHT22;4507;40.232;29.132;2022-08-21T11:55:32;38.20;45.40
8945;DHT22;4507;40.232;29.132;2022-08-21T11:58:17;38.20;45.50
8945;DHT22;4507;40.232;29.132;2022-08-21T12:00:54;38.20;45.20
8945;DHT22;4507;40.232;29.132;2022-08-21T12:03:27;38.20;45.30
8945;DHT22;4507;40.232;29.132;2022-08-21T12:05:58;38.10;45.00
8945;DHT22;4507;40.232;29.132;2022-08-21T12:08:32;38.20;45.10
8945;DHT22;4507;40.232;29.132;2022-08-21T12:11:05;38.20;45.30
8945;DHT22;4507;40.232;29.132;2022-08-21T12:13:36;38.20;45.30
8945;DHT22;4507;40.232;29.132;2022-08-21T12:16:14;38.20;45.30
8945;DHT22;4507;40.232;29.132;2022-08-21T12:18:44;38.10;45.60
8945;DHT22;4507;40.232;29.132;2022-08-21T12:21:24;38.00;46.00
8945;DHT22;4507;40.232;29.132;2022-08-21T12:24:17;37.90;46.10
8945;DHT22;4507;40.232;29.132;2022-08-21T12:26:52;37.80;46.30
8945;DHT22;4507;40.232;29.132;2022-08-21T12:29:24;37.70;45.90
8945;DHT22;4507;40.232;29.132;2022-08-21T12:31:58;37.70;45.90
8945;DHT22;4507;40.232;29.132;2022-08-21T12:34:36;37.80;45.70
8945;DHT22;4507;40.232;29.132;2022-08-21T12:37:15;37.80;46.20
8945;DHT22;4507;40.232;29.132;2022-08-21T12:39:49;37.80;46.00
8945;DHT22;4507;40.232;29.132;2022-08-21T12:42:22;37.80;45.80
8945;DHT22;4507;40.232;29.132;2022-08-21T12:44:55;37.70;45.40
8945;DHT22;4507;40.232;29.132;2022-08-21T12:47:31;37.80;45.70
8945;DHT22;4507;40.232;29.132;2022-08-21T12:50:05;37.90;45.60
8945;DHT22;4507;40.232;29.132;2022-08-21T12:52:41;37.90;45.40
8945;DHT22;4507;40.232;29.132;2022-08-21T12:55:14;37.90;44.70
8945;DHT22;4507;40.232;29.132;2022-08-21T12:57:44;38.00;44.60
8945;DHT22;4507;40.232;29.132;2022-08-21T13:00:20;37.90;44.60
8945;DHT22;4507;40.232;29.132;2022-08-21T13:02:53;38.00;44.80
8945;DHT22;4507;40.232;29.132;2022-08-21T13:05:29;38.20;44.60
8945;DHT22;4507;40.232;29.132;2022-08-21T13:07:58;38.40;44.10
8945;DHT22;4507;40.232;29.132;2022-08-21T13:10:33;38.30;43.60
8945;DHT22;4507;40.232;29.132;2022-08-21T13:13:05;38.20;43.40
8945;DHT22;4507;40.232;29.132;2022-08-21T13:15:41;38.30;43.80
8945;DHT22;4507;40.232;29.132;2022-08-21T13:18:22;38.40;43.60
8945;DHT22;4507;40.232;29.132;2022-08-21T13:21:03;38.30;43.30
8945;DHT22;4507;40.232;29.132;2022-08-21T13:23:33;38.10;43.20
8945;DHT22;4507;40.232;29.132;2022-08-21T13:26:18;37.80;43.20
8945;DHT22;4507;40.232;29.132;2022-08-21T13:28:52;37.40;43.70
8945;DHT22;4507;40.232;29.132;2022-08-21T13:31:32;37.20;44.30
8945;DHT22;4507;40.232;29.132;2022-08-21T13:34:02;37.00;45.00
8945;DHT22;4507;40.232;29.132;2022-08-21T13:36:35;36.70;45.50
8945;DHT22;4507;40.232;29.132;2022-08-21T13:39:05;36.50;45.60
8945;DHT22;4507;40.232;29.132;2022-08-21T13:41:38;36.20;45.80
8945;DHT22;4507;40.232;29.132;2022-08-21T13:44:16;35.90;46.10
8945;DHT22;4507;40.232;29.132;2022-08-21T13:46:48;35.70;46.70
8945;DHT22;4507;40.232;29.132;2022-08-21T13:49:40;35.50;47.20
8945;DHT22;4507;40.232;29.132;2022-08-21T13:52:14;35.20;47.70
8945;DHT22;4507;40.232;29.132;2022-08-21T13:55:11;35.00;48.00
8945;DHT22;4507;40.232;29.132;2022-08-21T13:57:40;34.80;48.60
8945;DHT22;4507;40.232;29.132;2022-08-21T14:00:12;34.60;49.10
8945;DHT22;4507;40.232;29.132;2022-08-21T14:02:44;34.50;49.70
8945;DHT22;4507;40.232;29.132;2022-08-21T14:05:21;34.50;50.20
8945;DHT22;4507;40.232;29.132;2022-08-21T14:08:02;34.40;50.60
8945;DHT22;4507;40.232;29.132;2022-08-21T14:10:36;34.30;50.60
8945;DHT22;4507;40.232;29.132;2022-08-21T14:13:06;34.30;51.30
8945;DHT22;4507;40.232;29.132;2022-08-21T14:15:35;34.20;50.80
8945;DHT22;4507;40.232;29.132;2022-08-21T14:18:09;34.10;50.80
8945;DHT22;4507;40.232;29.132;2022-08-21T14:20:43;34.10;51.00
8945;DHT22;4507;40.232;29.132;2022-08-21T14:23:23;34.00;51.20
8945;DHT22;4507;40.232;29.132;2022-08-21T14:25:58;34.00;51.50
8945;DHT22;4507;40.232;29.132;2022-08-21T14:28:31;33.90;51.70
8945;DHT22;4507;40.232;29.132;2022-08-21T14:31:13;33.90;51.70
8945;DHT22;4507;40.232;29.132;2022-08-21T14:33:42;33.90;52.10
8945;DHT22;4507;40.232;29.132;2022-08-21T14:36:13;33.90;52.50
8945;DHT22;4507;40.232;29.132;2022-08-21T14:38:42;33.80;53.00
8945;DHT22;4507;40.232;29.132;2022-08-21T14:41:17;33.80;52.40
8945;DHT22;4507;40.232;29.132;2022-08-21T14:43:47;33.80;52.40
8945;DHT22;4507;40.232;29.132;2022-08-21T14:46:33;33.70;52.40
8945;DHT22;4507;40.232;29.132;2022-08-21T14:49:22;33.70;52.60
8945;DHT22;4507;40.232;29.132;2022-08-21T14:51:53;33.70;53.00
8945;DHT22;4507;40.232;29.132;2022-08-21T14:54:26;33.50;53.10
8945;DHT22;4507;40.232;29.132;2022-08-21T14:57:00;33.40;53.20
8945;DHT22;4507;40.232;29.132;2022-08-21T14:59:30;33.40;53.60
8945;DHT22;4507;40.232;29.132;2022-08-21T15:02:00;33.40;53.90
8945;DHT22;4507;40.232;29.132;2022-08-21T15:04:50;33.30;53.90
8945;DHT22;4507;40.232;29.132;2022-08-21T15:07:20;33.20;54.10
8945;DHT22;4507;40.232;29.132;2022-08-21T15:09:49;33.20;54.50
8945;DHT22;4507;40.232;29.132;2022-08-21T15:12:18;33.10;54.60
8945;DHT22;4507;40.232;29.132;2022-08-21T15:14:47;33.10;54.70
8945;DHT22;4507;40.232;29.132;2022-08-21T15:17:16;33.00;54.80
8945;DHT22;4507;40.232;29.132;2022-08-21T15:19:45;32.90;55.00
8945;DHT22;4507;40.232;29.132;2022-08-21T15:22:14;32.90;55.30
8945;DHT22;4507;40.232;29.132;2022-08-21T15:24:55;32.90;55.50
8945;DHT22;4507;40.232;29.132;2022-08-21T15:27:24;32.80;56.40
8945;DHT22;4507;40.232;29.132;2022-08-21T15:29:53;32.80;56.00
8945;DHT22;4507;40.232;29.132;2022-08-21T15:32:24;32.70;56.20
8945;DHT22;4507;40.232;29.132;2022-08-21T15:34:55;32.70;56.30
8945;DHT22;4507;40.232;29.132;2022-08-21T15:37:43;32.60;56.50
8945;DHT22;4507;40.232;29.132;2022-08-21T15:40:14;32.60;56.50
8945;DHT22;4507;40.232;29.132;2022-08-21T15:42:43;32.50;57.20
8945;DHT22;4507;40.232;29.132;2022-08-21T15:45:14;32.50;57.00
8945;DHT22;4507;40.232;29.132;2022-08-21T15:47:44;32.40;57.20
8945;DHT22;4507;40.232;29.132;2022-08-21T15:50:13;32.30;57.30
8945;DHT22;4507;40.232;29.132;2022-08-21T15:52:42;32.30;57.60
8945;DHT22;4507;40.232;29.132;2022-08-21T15:55:13;32.20;57.70
8945;DHT22;4507;40.232;29.132;2022-08-21T15:57:44;32.10;57.80
8945;DHT22;4507;40.232;29.132;2022-08-21T16:00:26;32.10;58.10
8945;DHT22;4507;40.232;29.132;2022-08-21T16:02:57;32.00;58.30
8945;DHT22;4507;40.232;29.132;2022-08-21T16:05:27;31.90;58.50
8945;DHT22;4507;40.232;29.132;2022-08-21T16:07:56;31.90;58.60
8945;DHT22;4507;40.232;29.132;2022-08-21T16:10:26;31.90;59.40
8945;DHT22;4507;40.232;29.132;2022-08-21T16:13:00;31.80;58.90
8945;DHT22;4507;40.232;29.132;2022-08-21T16:15:30;31.70;59.00
8945;DHT22;4507;40.232;29.132;2022-08-21T16:17:59;31.60;59.10
8945;DHT22;4507;40.232;29.132;2022-08-21T16:20:29;31.60;59.30
8945;DHT22;4507;40.232;29.132;2022-08-21T16:22:58;31.50;59.50